Time;durP1;ratioP1;P1;durP2;ratioP2;P2;SDS_P1;SDS_P2;PMS_P1;PMS_P2;Temp;Humidity;BMP_temperature;BMP_pressure;BME280_temperature;BME280_humidity;BME280_pressure;Samples;Min_cycle;Max_cycle;Signal;HPM_P1;HPM_P2
2022/07/27 00:00:24;;;;;;;5.90;4.72;;;;;;;31.17;40.91;96390.75;5093519;28;20098;-27
2022/07/27 00:02:50;;;;;;;7.68;4.57;;;;;;;31.05;41.06;96381.97;5094133;28;20051;-26
2022/07/27 00:05:16;;;;;;;5.35;4.63;;;;;;;31.06;41.58;96388.34;5094031;28;20016;-26
2022/07/27 00:07:42;;;;;;;5.78;4.95;;;;;;;31.04;41.85;96385.34;5094300;28;20496;-26
2022/07/27 00:10:07;;;;;;;5.00;4.50;;;;;;;31.00;41.99;96377.34;5093881;28;20097;-26
2022/07/27 00:12:33;;;;;;;5.32;4.80;;;;;;;31.17;41.80;96384.41;5094024;28;20028;-26
2022/07/27 00:14:58;;;;;;;5.05;4.55;;;;;;;31.07;42.01;96382.16;5093820;28;20020;-26
2022/07/27 00:17:25;;;;;;;4.88;4.38;;;;;;;31.14;41.90;96374.34;5093891;28;20073;-27
2022/07/27 00:19:50;;;;;;;5.13;4.63;;;;;;;31.20;42.24;96377.66;5094084;28;20019;-26
2022/07/27 00:22:16;;;;;;;5.40;4.90;;;;;;;31.10;42.71;96371.19;5092563;28;20507;-27
2022/07/27 00:24:42;;;;;;;5.15;4.70;;;;;;;31.12;42.05;96377.72;5090724;28;20440;-26
2022/07/27 00:27:07;;;;;;;5.30;4.85;;;;;;;31.12;42.57;96374.16;5093630;28;20028;-26
2022/07/27 00:29:33;;;;;;;6.30;5.38;;;;;;;31.06;42.06;96366.66;5093705;28;20020;-27
2022/07/27 00:31:58;;;;;;;5.47;4.97;;;;;;;31.11;42.58;96369.88;5093919;28;20032;-26
2022/07/27 00:34:24;;;;;;;6.38;5.30;;;;;;;31.22;42.11;96369.44;5093812;28;20030;-26
2022/07/27 00:36:49;;;;;;;5.18;4.68;;;;;;;31.18;42.26;96366.28;5093779;28;20016;-26
2022/07/27 00:39:15;;;;;;;5.30;4.85;;;;;;;31.11;42.74;96367.06;5093514;28;20028;-26
2022/07/27 00:41:40;;;;;;;5.07;4.60;;;;;;;31.12;42.35;96357.34;5093541;28;20039;-26
2022/07/27 00:44:06;;;;;;;5.53;5.03;;;;;;;31.12;42.92;96360.16;5093437;28;20016;-26
2022/07/27 00:46:32;;;;;;;5.90;5.30;;;;;;;31.11;43.27;96355.88;5093806;28;20043;-26
2022/07/27 00:48:57;;;;;;;5.18;4.78;;;;;;;31.16;42.56;96361.25;5093482;28;20028;-26
2022/07/27 00:51:24;;;;;;;6.85;5.07;;;;;;;31.06;42.96;96358.28;5093519;28;20030;-26
2022/07/27 00:53:52;;;;;;;5.78;5.18;;;;;;;31.21;43.02;96360.28;5093326;28;20384;-26
2022/07/27 00:56:18;;;;;;;6.18;4.57;;;;;;;31.06;43.65;96355.47;5093454;28;20056;-26
2022/07/27 00:58:47;;;;;;;5.70;4.85;;;;;;;31.10;42.81;96345.97;5093355;28;20028;-26
2022/07/27 01:01:13;;;;;;;5.20;4.80;;;;;;;31.12;43.25;96352.50;5093644;28;20142;-26
2022/07/27 01:03:39;;;;;;;5.18;4.68;;;;;;;31.07;43.50;96345.75;5092238;28;20020;-27
2022/07/27 01:06:05;;;;;;;5.90;5.30;;;;;;;31.09;43.23;96345.22;5093310;28;20347;-26
2022/07/27 01:08:30;;;;;;;6.00;5.10;;;;;;;31.11;44.17;96344.66;5093284;28;20024;-26
2022/07/27 01:10:56;;;;;;;5.32;4.82;;;;;;;31.06;43.83;96338.66;5093685;28;20490;-26
2022/07/27 01:13:24;;;;;;;5.97;5.35;;;;;;;31.11;43.76;96333.44;5097368;28;20027;-27
2022/07/27 01:15:51;;;;;;;5.57;5.07;;;;;;;31.08;43.90;96319.25;5097388;28;20042;-27
2022/07/27 01:18:27;;;;;;;5.28;4.78;;;;;;;31.20;43.59;96324.44;5097315;28;20154;-26
2022/07/27 01:20:53;;;;;;;6.10;4.90;;;;;;;31.12;43.62;96334.94;5097147;28;20513;-26
2022/07/27 01:23:18;;;;;;;5.22;4.72;;;;;;;31.11;43.97;96327.84;5097176;28;20111;-26
2022/07/27 01:25:44;;;;;;;6.20;5.05;;;;;;;31.08;44.22;96319.25;5097104;28;20161;-26
2022/07/27 01:28:09;;;;;;;5.32;4.82;;;;;;;31.00;43.88;96307.34;5097362;28;20024;-26
2022/07/27 01:30:35;;;;;;;5.63;5.05;;;;;;;31.10;44.20;96321.50;5097067;28;20070;-27
2022/07/27 01:33:08;;;;;;;5.43;5.03;;;;;;;31.10;44.55;96317.97;5096865;28;20024;-26
2022/07/27 01:35:36;;;;;;;5.10;4.65;;;;;;;31.10;44.56;96315.16;5097087;28;20028;-27
2022/07/27 01:38:01;;;;;;;6.07;5.03;;;;;;;30.99;44.24;96314.25;5097006;28;20075;-26
2022/07/27 01:40:27;;;;;;;5.47;4.97;;;;;;;31.03;44.50;96314.59;5096787;28;20070;-26
2022/07/27 01:42:52;;;;;;;6.43;5.15;;;;;;;30.99;45.16;96311.44;5096876;28;20012;-27
2022/07/27 01:45:18;;;;;;;5.63;4.97;;;;;;;31.04;44.43;96313.28;5096702;28;20392;-26
2022/07/27 01:47:43;;;;;;;5.88;5.10;;;;;;;31.15;44.58;96308.59;5096740;28;20044;-26
2022/07/27 01:50:10;;;;;;;7.50;5.20;;;;;;;31.15;44.43;96311.41;5096918;28;20027;-27
2022/07/27 01:52:35;;;;;;;6.15;5.47;;;;;;;31.18;44.59;96304.66;5096746;28;20046;-27
2022/07/27 01:55:00;;;;;;;5.75;5.25;;;;;;;31.17;44.29;96308.75;5096803;28;20458;-26
2022/07/27 01:57:26;;;;;;;5.82;5.07;;;;;;;31.15;44.29;96312.16;5096585;28;20020;-27
2022/07/27 01:59:52;;;;;;;5.53;5.03;;;;;;;31.20;44.28;96297.16;5096635;28;20489;-27
2022/07/27 02:02:18;;;;;;;6.18;5.50;;;;;;;31.26;44.02;96308.16;5096680;28;20023;-27
2022/07/27 02:04:43;;;;;;;5.95;5.35;;;;;;;31.16;45.13;96307.28;5096439;28;20386;-28
2022/07/27 02:07:10;;;;;;;5.38;4.88;;;;;;;31.19;44.95;96306.13;5096285;28;20020;-26
2022/07/27 02:09:35;;;;;;;5.88;5.38;;;;;;;31.17;44.58;96308.75;5096219;28;20044;-26
2022/07/27 02:14:45;;;;;;;5.40;4.93;;;;;;;31.21;44.43;96311.91;5096322;28;20051;-27
2022/07/27 02:17:10;;;;;;;6.25;5.50;;;;;;;31.22;45.05;96310.59;5096472;28;20060;-26
2022/07/27 02:19:35;;;;;;;6.70;5.80;;;;;;;31.23;44.47;96317.72;5096087;28;20024;-26
2022/07/27 02:22:01;;;;;;;5.20;4.70;;;;;;;31.21;44.40;96314.72;5096004;28;20031;-27
2022/07/27 02:24:26;;;;;;;5.80;5.30;;;;;;;31.19;44.94;96306.13;5095604;28;20024;-26
2022/07/27 02:26:52;;;;;;;5.63;4.97;;;;;;;31.23;45.31;96317.72;5096084;28;20024;-28
2022/07/27 02:29:18;;;;;;;5.47;5.05;;;;;;;31.20;45.30;96307.63;5095979;28;20478;-26
2022/07/27 02:31:43;;;;;;;5.72;5.15;;;;;;;31.18;44.43;96299.03;5096042;28;20024;-26
2022/07/27 02:34:09;;;;;;;5.40;4.90;;;;;;;31.20;45.48;96290.81;5096296;28;20034;-26
2022/07/27 02:36:34;;;;;;;6.60;5.50;;;;;;;31.17;45.19;96295.50;5095605;28;20038;-26
2022/07/27 02:39:00;;;;;;;6.40;5.30;;;;;;;31.21;45.48;96295.84;5095209;28;20069;-26
2022/07/27 02:41:25;;;;;;;6.35;5.65;;;;;;;31.16;45.87;96294.00;5095414;28;20020;-27
2022/07/27 02:43:50;;;;;;;5.88;5.20;;;;;;;31.19;45.04;96297.72;5095195;28;20365;-26
2022/07/27 02:46:16;;;;;;;7.85;5.47;;;;;;;31.24;45.33;96297.53;5095672;28;20027;-26
2022/07/27 02:48:42;;;;;;;5.80;5.30;;;;;;;31.20;45.19;96297.16;5095391;28;20115;-26
2022/07/27 02:51:07;;;;;;;6.80;6.18;;;;;;;31.22;45.13;96293.81;5095440;28;20024;-26
2022/07/27 02:53:32;;;;;;;7.45;6.75;;;;;;;31.18;45.77;96291.38;5094720;28;20427;-26
2022/07/27 02:55:58;;;;;;;6.45;5.50;;;;;;;31.18;45.66;96297.00;5094600;28;20035;-26
2022/07/27 02:58:24;;;;;;;6.07;5.47;;;;;;;31.18;45.63;96290.63;5094436;28;20020;-26
2022/07/27 03:00:49;;;;;;;7.57;5.78;;;;;;;31.16;45.81;96293.28;5094478;28;20070;-25
2022/07/27 03:03:15;;;;;;;7.63;6.20;;;;;;;31.15;45.61;96298.16;5094504;28;20367;-26
2022/07/27 03:05:41;;;;;;;6.35;5.75;;;;;;;31.15;46.35;96294.59;5093047;28;20111;-26
2022/07/27 03:08:07;;;;;;;6.32;5.82;;;;;;;31.16;45.77;96296.81;5094448;28;20501;-26
2022/07/27 03:10:32;;;;;;;7.30;6.43;;;;;;;31.18;45.55;96291.38;5094005;28;20413;-26
2022/07/27 03:12:58;;;;;;;6.80;6.00;;;;;;;31.16;46.19;96287.69;5094044;28;20046;-26
2022/07/27 03:15:23;;;;;;;7.03;5.68;;;;;;;31.13;45.87;96283.22;5094117;28;20366;-26
2022/07/27 03:17:49;;;;;;;6.47;5.88;;;;;;;31.15;45.82;96289.00;5092843;28;20472;-26
2022/07/27 03:20:15;;;;;;;6.68;5.90;;;;;;;31.15;46.23;96291.81;5094299;28;20091;-26
2022/07/27 03:22:41;;;;;;;5.88;5.32;;;;;;;31.10;46.26;96287.88;5093859;28;20020;-26
2022/07/27 03:25:07;;;;;;;6.55;5.97;;;;;;;31.16;45.74;96291.22;5093864;28;20031;-26
2022/07/27 03:27:33;;;;;;;6.55;5.93;;;;;;;31.14;46.92;96299.47;5092692;28;20491;-26
2022/07/27 03:29:59;;;;;;;7.28;6.50;;;;;;;31.18;45.93;96299.03;5093704;28;20099;-26
2022/07/27 03:32:24;;;;;;;6.28;5.68;;;;;;;31.12;46.07;96287.31;5093849;28;20390;-26
2022/07/27 03:34:49;;;;;;;7.57;6.30;;;;;;;31.11;46.82;96289.38;5092867;28;20348;-26
2022/07/27 03:37:16;;;;;;;6.22;5.65;;;;;;;31.12;46.32;96302.06;5093645;28;20492;-26
2022/07/27 03:39:41;;;;;;;7.80;6.45;;;;;;;31.13;46.59;96291.63;5093781;28;20097;-25
2022/07/27 03:42:07;;;;;;;6.80;6.03;;;;;;;31.13;46.52;96294.41;5093594;28;20458;-26
2022/07/27 03:44:32;;;;;;;6.43;5.80;;;;;;;31.12;46.28;96299.28;5093901;28;20024;-26
2022/07/27 03:46:58;;;;;;;6.75;6.05;;;;;;;31.10;46.84;96298.34;5094369;28;20036;-26
2022/07/27 03:49:23;;;;;;;6.57;5.97;;;;;;;31.12;46.82;96295.72;5094474;28;20057;-26
2022/07/27 03:51:49;;;;;;;6.38;5.78;;;;;;;31.13;46.58;96291.63;5094384;28;20039;-26
2022/07/27 03:54:16;;;;;;;6.30;5.70;;;;;;;31.04;47.15;96285.25;5094268;28;20028;-26
2022/07/27 03:56:42;;;;;;;6.63;5.90;;;;;;;31.11;46.32;96291.44;5094348;28;20027;-26
2022/07/27 03:59:08;;;;;;;7.07;5.97;;;;;;;31.05;46.92;96286.75;5094453;28;20024;-27
2022/07/27 04:01:34;;;;;;;7.03;6.32;;;;;;;31.08;46.87;96296.84;5094200;28;20397;-26
2022/07/27 04:03:59;;;;;;;6.60;6.03;;;;;;;31.08;46.45;96296.84;5094076;28;20034;-27
2022/07/27 04:06:25;;;;;;;6.88;5.70;;;;;;;31.08;46.05;96304.50;5094182;28;20470;-26
2022/07/27 04:08:50;;;;;;;6.03;5.45;;;;;;;31.07;46.49;96298.13;5094008;28;20056;-27
2022/07/27 04:11:16;;;;;;;7.32;6.07;;;;;;;31.07;45.80;96312.16;5094255;28;20066;-26
2022/07/27 04:13:42;;;;;;;6.45;5.85;;;;;;;31.04;46.26;96313.28;5093767;28;20385;-26
2022/07/27 04:16:08;;;;;;;6.55;5.95;;;;;;;31.03;46.49;96316.66;5093872;28;20034;-26
2022/07/27 04:18:33;;;;;;;9.75;6.30;;;;;;;31.05;46.27;96316.81;5093961;28;20032;-26
2022/07/27 04:21:02;;;;;;;6.50;5.95;;;;;;;31.01;46.52;96328.44;5093780;28;20020;-26
2022/07/27 04:23:27;;;;;;;6.60;5.90;;;;;;;31.02;46.43;96331.97;5093920;28;20024;-26
2022/07/27 04:25:53;;;;;;;7.05;6.35;;;;;;;31.02;46.57;96321.53;5093693;28;20382;-26
2022/07/27 04:28:18;;;;;;;8.10;6.78;;;;;;;31.00;46.58;96324.13;5093777;28;20024;-26
2022/07/27 04:30:44;;;;;;;6.65;5.95;;;;;;;31.00;46.07;96324.13;5093641;28;20024;-26
2022/07/27 04:33:09;;;;;;;6.40;5.63;;;;;;;31.03;45.98;96336.97;5093636;28;20028;-27
2022/07/27 04:35:35;;;;;;;6.20;5.70;;;;;;;30.91;46.50;96338.72;5093614;28;20020;-27
2022/07/27 04:38:00;;;;;;;6.55;5.95;;;;;;;30.91;46.43;96333.13;5093650;28;20393;-27
2022/07/27 04:40:30;;;;;;;5.85;5.30;;;;;;;30.96;46.24;96342.63;5093542;28;20378;-26
2022/07/27 04:42:56;;;;;;;6.82;6.10;;;;;;;30.92;46.28;96348.59;5093827;28;20042;-26
2022/07/27 04:45:21;;;;;;;7.03;6.07;;;;;;;30.95;46.13;96355.88;5090829;28;20469;-26
2022/07/27 04:47:46;;;;;;;7.35;5.97;;;;;;;30.97;45.78;96352.53;5091397;28;20108;-26
2022/07/27 04:50:12;;;;;;;6.72;5.85;;;;;;;30.95;45.65;96361.50;5091644;28;20077;-27
2022/07/27 04:52:37;;;;;;;6.80;6.20;;;;;;;30.93;46.14;96361.31;5091462;28;20032;-26
2022/07/27 04:55:03;;;;;;;5.97;5.38;;;;;;;30.96;45.89;96365.03;5091470;28;20016;-26
2022/07/27 04:57:28;;;;;;;6.53;5.85;;;;;;;30.93;46.02;96363.34;5091038;28;20028;-26
2022/07/27 04:59:54;;;;;;;7.13;5.95;;;;;;;30.87;46.31;96363.56;5091451;28;20031;-26
2022/07/27 05:02:20;;;;;;;6.13;5.63;;;;;;;30.89;46.07;96360.97;5091336;28;20031;-26
2022/07/27 05:04:45;;;;;;;6.55;5.50;;;;;;;30.95;45.92;96367.09;5091381;28;20024;-28
2022/07/27 05:07:10;;;;;;;6.43;5.72;;;;;;;30.91;46.10;96361.13;5091333;28;20028;-27
2022/07/27 05:09:36;;;;;;;6.68;6.00;;;;;;;30.90;46.22;96368.06;5090716;28;20044;-26
2022/07/27 05:12:01;;;;;;;6.18;5.57;;;;;;;30.91;46.10;96377.19;5088309;28;20031;-27
2022/07/27 05:14:27;;;;;;;5.75;5.07;;;;;;;30.89;45.93;96372.16;5091404;28;20047;-27
2022/07/27 05:16:52;;;;;;;6.50;5.80;;;;;;;30.93;45.59;96366.91;5091215;28;20027;-26
2022/07/27 05:19:18;;;;;;;7.57;6.13;;;;;;;30.97;45.89;96372.13;5091229;28;20477;-28
2022/07/27 05:21:43;;;;;;;6.55;5.53;;;;;;;30.94;45.90;96368.41;5091092;28;20046;-26
2022/07/27 05:24:09;;;;;;;5.85;5.35;;;;;;;30.91;45.58;96366.00;5091232;28;20456;-26
2022/07/27 05:26:34;;;;;;;6.20;5.28;;;;;;;30.93;45.86;96374.56;5091221;28;20035;-26
2022/07/27 05:29:00;;;;;;;6.03;5.43;;;;;;;30.93;45.65;96366.91;5091081;28;20032;-26
2022/07/27 05:31:25;;;;;;;7.55;5.60;;;;;;;30.90;46.13;96370.09;5090965;28;20024;-28
2022/07/27 05:33:51;;;;;;;7.05;5.88;;;;;;;30.90;45.94;96373.66;5090770;28;20028;-26
2022/07/27 05:36:16;;;;;;;6.20;5.30;;;;;;;30.90;45.75;96379.25;5091125;28;20059;-26
2022/07/27 05:38:42;;;;;;;5.97;5.47;;;;;;;30.95;45.62;96371.94;5089696;28;20042;-26
2022/07/27 05:41:08;;;;;;;7.57;5.72;;;;;;;30.87;45.95;96371.22;5091048;28;20492;-27
2022/07/27 05:43:34;;;;;;;6.20;5.60;;;;;;;30.93;46.00;96380.16;5090885;28;20043;-26
2022/07/27 05:46:00;;;;;;;7.18;6.10;;;;;;;30.87;45.74;96371.97;5090629;28;20054;-26
2022/07/27 05:48:26;;;;;;;5.90;5.35;;;;;;;30.85;46.52;96369.00;5090936;28;20119;-26
2022/07/27 05:50:51;;;;;;;6.85;5.45;;;;;;;30.82;46.83;96372.16;5090781;28;20111;-26
2022/07/27 05:53:17;;;;;;;6.40;5.75;;;;;;;30.86;46.60;96364.88;5090892;28;20027;-26
2022/07/27 05:55:42;;;;;;;6.78;5.28;;;;;;;30.81;46.09;96370.69;5090773;28;20462;-26
2022/07/27 05:58:08;;;;;;;6.70;5.38;;;;;;;30.79;46.91;96368.44;5090179;28;20130;-26
2022/07/27 06:00:34;;;;;;;7.03;6.10;;;;;;;30.82;46.75;96364.50;5094415;28;20073;-26
2022/07/27 06:02:59;;;;;;;6.40;5.80;;;;;;;30.82;46.93;96364.50;5094671;28;20115;-26
2022/07/27 06:05:25;;;;;;;6.95;5.53;;;;;;;30.80;46.43;96372.72;5094483;28;20059;-27
2022/07/27 06:08:01;;;;;;;8.30;5.97;;;;;;;30.80;47.10;96369.94;5093202;28;20028;-27
2022/07/27 06:10:29;;;;;;;7.45;5.70;;;;;;;30.83;46.40;96363.22;5094298;28;20048;-26
2022/07/27 06:12:55;;;;;;;6.38;5.78;;;;;;;30.79;46.67;96360.03;5092675;28;20088;-26
2022/07/27 06:15:21;;;;;;;7.03;6.28;;;;;;;30.85;46.74;96357.03;5092846;28;20024;-26
2022/07/27 06:17:48;;;;;;;8.95;5.57;;;;;;;30.83;46.56;96360.41;5094243;28;20072;-26
2022/07/27 06:20:13;;;;;;;6.43;5.68;;;;;;;30.84;46.61;96361.16;5094030;28;20028;-26
2022/07/27 06:22:50;;;;;;;6.35;5.75;;;;;;;30.79;47.15;96364.88;5094000;28;20028;-27
2022/07/27 06:25:17;;;;;;;6.40;5.80;;;;;;;30.74;46.57;96351.84;5093943;28;20482;-27
2022/07/27 06:27:43;;;;;;;7.57;5.80;;;;;;;30.81;47.42;96351.81;5094060;28;20039;-26
2022/07/27 06:30:09;;;;;;;6.82;6.07;;;;;;;30.86;46.71;96348.09;5094519;28;20024;-26
2022/07/27 06:32:34;;;;;;;10.13;6.22;;;;;;;30.65;47.60;96351.13;5087223;28;20035;-28
2022/07/27 06:35:01;;;;;;;6.53;5.88;;;;;;;30.74;47.54;96341.41;5073557;28;20024;-27
2022/07/27 06:37:28;;;;;;;6.50;6.00;;;;;;;30.77;46.82;96339.53;5073537;28;20477;-26
2022/07/27 06:39:54;;;;;;;6.18;5.60;;;;;;;30.61;47.42;96333.22;5073728;28;20040;-26
2022/07/27 06:42:19;;;;;;;9.10;6.40;;;;;;;30.53;48.36;96335.28;5073640;28;20023;-26
2022/07/27 06:44:44;;;;;;;6.80;6.05;;;;;;;30.66;47.42;96335.09;5073536;28;20463;-26
2022/07/27 06:47:10;;;;;;;8.05;6.00;;;;;;;30.71;47.29;96336.94;5073585;28;20077;-28
2022/07/27 06:49:35;;;;;;;6.68;5.95;;;;;;;30.58;47.22;96340.69;5081948;28;20016;-26
2022/07/27 06:52:01;;;;;;;6.28;5.65;;;;;;;30.67;47.68;96337.31;5091698;28;20496;-26
2022/07/27 06:54:26;;;;;;;6.05;5.45;;;;;;;30.62;47.68;96337.53;5092535;28;20373;-26
2022/07/27 06:56:52;;;;;;;12.70;5.85;;;;;;;30.53;48.85;96340.88;5077316;28;20032;-27
2022/07/27 06:59:17;;;;;;;7.72;6.20;;;;;;;30.57;48.09;96324.47;5072181;28;20028;-26
2022/07/27 07:01:43;;;;;;;7.72;6.03;;;;;;;30.69;47.56;96328.34;5072765;28;20027;-28
2022/07/27 07:04:08;;;;;;;6.75;6.10;;;;;;;30.68;48.06;96335.25;5073057;28;20066;-26
2022/07/27 07:06:34;;;;;;;9.02;6.13;;;;;;;30.69;47.75;96336.75;5072926;28;20038;-26
2022/07/27 07:09:00;;;;;;;6.65;5.93;;;;;;;30.72;46.97;96330.03;5072603;28;20052;-26
2022/07/27 07:11:25;;;;;;;10.18;6.22;;;;;;;30.73;47.28;96328.72;5071133;28;20085;-26
2022/07/27 07:13:50;;;;;;;9.35;5.78;;;;;;;30.66;47.46;96333.00;5072967;28;20071;-26
2022/07/27 07:16:16;;;;;;;6.88;6.13;;;;;;;30.51;47.61;96335.84;5073027;28;20367;-26
2022/07/27 07:18:41;;;;;;;6.72;6.13;;;;;;;30.56;47.44;96336.97;5074145;28;20082;-26
2022/07/27 07:21:07;;;;;;;7.10;6.05;;;;;;;30.52;48.11;96328.19;5072054;28;20024;-26
2022/07/27 07:23:33;;;;;;;7.97;5.85;;;;;;;30.44;48.11;96333.78;5071947;28;20429;-26
2022/07/27 07:25:58;;;;;;;7.85;5.80;;;;;;;30.51;48.37;96332.28;5072292;28;20052;-26
2022/07/27 07:28:24;;;;;;;7.95;5.88;;;;;;;30.43;48.30;96323.91;5072555;28;20104;-26
2022/07/27 07:30:49;;;;;;;6.93;5.35;;;;;;;30.26;48.56;96327.28;5072262;28;20048;-26
2022/07/27 07:33:15;;;;;;;8.30;5.95;;;;;;;30.17;49.22;96318.72;5072107;28;20573;-26
2022/07/27 07:35:41;;;;;;;12.55;6.53;;;;;;;30.26;48.75;96324.50;5072380;28;20024;-26
2022/07/27 07:38:06;;;;;;;8.45;5.47;;;;;;;30.25;48.41;96331.41;5072653;28;20035;-26
2022/07/27 07:40:32;;;;;;;6.13;5.43;;;;;;;30.29;48.90;96317.03;5072346;28;20035;-26
2022/07/27 07:43:00;;;;;;;6.65;5.65;;;;;;;30.42;47.87;96321.66;5072436;28;20035;-26
2022/07/27 07:45:27;;;;;;;7.90;5.85;;;;;;;30.52;47.61;96319.78;5071903;28;20052;-26
2022/07/27 07:47:53;;;;;;;6.65;5.80;;;;;;;30.35;48.46;96306.38;5072370;28;20032;-26
2022/07/27 07:50:19;;;;;;;9.50;5.68;;;;;;;30.52;46.52;96306.53;5072160;28;20557;-26
2022/07/27 07:52:47;;;;;;;7.40;5.75;;;;;;;30.41;47.89;96303.41;5072070;28;20116;-27
2022/07/27 07:55:12;;;;;;;6.78;5.18;;;;;;;30.27;47.90;96291.69;5072148;28;20037;-26
2022/07/27 07:57:38;;;;;;;9.57;5.57;;;;;;;30.26;47.68;96296.53;5071761;28;20082;-27
2022/07/27 08:00:05;;;;;;;12.88;6.25;;;;;;;30.19;48.46;96300.06;5083995;28;20021;-26
2022/07/27 08:02:31;;;;;;;7.05;5.63;;;;;;;30.35;47.44;96293.16;5074892;28;20012;-27
2022/07/27 08:04:56;;;;;;;6.45;5.45;;;;;;;30.43;47.19;96307.09;5073431;28;20024;-26
2022/07/27 08:07:22;;;;;;;7.47;5.65;;;;;;;30.19;48.09;96305.66;5073919;28;20043;-26
2022/07/27 08:09:47;;;;;;;6.95;5.40;;;;;;;30.38;47.47;96305.28;5073893;28;20043;-27
2022/07/27 08:12:13;;;;;;;7.72;5.65;;;;;;;30.53;47.20;96301.69;5073516;28;20025;-26
2022/07/27 08:14:38;;;;;;;8.07;5.22;;;;;;;30.47;47.60;96301.88;5073598;28;20028;-26
2022/07/27 08:17:04;;;;;;;7.25;5.55;;;;;;;30.43;46.86;96312.69;5072944;28;20035;-26
2022/07/27 08:19:29;;;;;;;6.88;5.43;;;;;;;30.34;47.60;96305.63;5072468;28;20097;-26
2022/07/27 08:21:55;;;;;;;13.73;6.40;;;;;;;29.05;50.87;96310.34;5071373;28;20030;-27
2022/07/27 08:24:20;;;;;;;8.70;5.63;;;;;;;29.71;49.14;96303.97;5073036;28;20021;-28
2022/07/27 08:26:45;;;;;;;7.07;5.28;;;;;;;30.01;47.92;96312.41;5073680;28;20032;-29
2022/07/27 08:29:11;;;;;;;8.10;6.05;;;;;;;30.08;47.82;96316.50;5073526;28;20351;-29
2022/07/27 08:31:36;;;;;;;9.63;5.65;;;;;;;29.97;47.62;96312.03;5073247;28;20573;-28
2022/07/27 08:34:02;;;;;;;6.53;4.88;;;;;;;29.67;48.15;96318.34;5073158;28;20554;-28
2022/07/27 08:36:27;;;;;;;11.50;5.15;;;;;;;29.93;47.46;96314.41;5072266;28;20023;-28
2022/07/27 08:38:53;;;;;;;11.07;4.57;;;;;;;29.90;47.07;96310.69;5073202;28;20123;-28
2022/07/27 08:41:23;;;;;;;9.07;4.90;;;;;;;29.87;47.33;96292.25;5073121;28;20029;-29
2022/07/27 08:43:48;;;;;;;8.23;4.53;;;;;;;30.09;46.83;96296.34;5073320;28;20024;-28
2022/07/27 08:46:17;;;;;;;7.28;5.00;;;;;;;30.25;46.26;96294.28;5073437;28;20081;-28
2022/07/27 08:48:43;;;;;;;9.13;4.88;;;;;;;30.27;46.24;96289.63;5073173;28;20026;-28
2022/07/27 08:51:10;;;;;;;6.43;4.25;;;;;;;30.30;45.91;96294.06;5073162;28;20021;-29
2022/07/27 08:53:35;;;;;;;7.35;4.38;;;;;;;30.02;45.78;96290.78;5073092;28;20048;-28
2022/07/27 08:56:01;;;;;;;8.88;4.63;;;;;;;29.99;45.72;96290.59;5072987;28;20059;-28
2022/07/27 08:58:27;;;;;;;7.38;4.55;;;;;;;30.06;44.97;96285.53;5073058;28;20540;-28
2022/07/27 09:00:52;;;;;;;10.68;4.53;;;;;;;29.83;45.10;96293.91;5073143;28;20429;-28
2022/07/27 09:03:20;;;;;;;8.68;4.00;;;;;;;29.73;44.88;96295.78;5071941;28;20021;-29
2022/07/27 09:05:54;;;;;;;10.98;4.32;;;;;;;29.81;44.54;96288.13;5072968;28;20063;-28
2022/07/27 09:08:23;;;;;;;10.80;4.07;;;;;;;30.03;43.93;96284.63;5072931;28;20047;-30
2022/07/27 09:10:49;;;;;;;5.22;3.75;;;;;;;29.90;43.48;96301.56;5072716;28;20044;-30
2022/07/27 09:13:19;;;;;;;7.57;4.15;;;;;;;29.96;43.59;96300.09;5072921;28;20024;-28
2022/07/27 09:15:46;;;;;;;9.85;3.95;;;;;;;30.10;43.76;96291.50;5073043;28;20135;-28
2022/07/27 09:18:38;;;;;;;9.43;4.05;;;;;;;30.25;43.13;96297.09;5072910;28;20066;-29
2022/07/27 09:21:17;;;;;;;5.70;3.80;;;;;;;30.24;43.27;96296.34;5072776;28;20577;-28
2022/07/27 09:23:54;;;;;;;9.32;3.70;;;;;;;29.89;44.34;96302.88;5072782;28;20470;-28
2022/07/27 09:26:24;;;;;;;8.48;3.80;;;;;;;30.15;44.06;96302.50;5072842;28;20040;-28
2022/07/27 09:28:59;;;;;;;8.07;3.67;;;;;;;29.81;44.30;96300.06;5072627;28;20020;-28
2022/07/27 09:31:25;;;;;;;7.15;3.95;;;;;;;29.94;44.02;96308.25;5072833;28;20021;-28
2022/07/27 09:33:53;;;;;;;8.07;3.40;;;;;;;30.07;43.51;96303.81;5074926;28;20028;-28
2022/07/27 09:36:21;;;;;;;9.35;3.20;;;;;;;30.01;43.50;96306.81;5076715;28;20036;-28
2022/07/27 09:38:59;;;;;;;10.60;3.65;;;;;;;30.06;43.52;96293.94;5076688;28;20027;-28
2022/07/27 09:41:25;;;;;;;8.32;3.65;;;;;;;29.83;44.51;96297.47;5076687;28;20051;-28
2022/07/27 09:43:55;;;;;;;6.13;3.25;;;;;;;30.03;44.44;96298.63;5076532;28;20016;-28
2022/07/27 09:46:35;;;;;;;6.32;2.50;;;;;;;29.43;44.51;96294.44;5076717;28;20028;-29
2022/07/27 09:49:01;;;;;;;5.05;3.28;;;;;;;29.88;44.06;96293.75;5076253;28;20162;-28
2022/07/27 09:51:28;;;;;;;11.43;3.58;;;;;;;30.12;43.85;96289.66;5076663;28;20107;-28
2022/07/27 09:53:55;;;;;;;6.88;2.83;;;;;;;29.88;44.43;96301.38;5076362;28;20021;-29
2022/07/27 09:56:29;;;;;;;9.82;3.63;;;;;;;30.03;44.11;96297.88;5076493;28;20094;-28
2022/07/27 09:58:57;;;;;;;5.35;3.20;;;;;;;30.22;43.91;96290.56;5076294;28;20029;-28
2022/07/27 10:01:33;;;;;;;9.07;3.40;;;;;;;29.87;44.16;96291.50;5083974;28;20027;-28
2022/07/27 10:04:06;;;;;;;8.77;3.00;;;;;;;29.82;44.30;96295.22;5094504;28;20032;-28
2022/07/27 10:06:33;;;;;;;6.30;2.92;;;;;;;29.72;44.53;96294.28;5076138;28;20459;-29
2022/07/27 10:08:59;;;;;;;7.72;3.30;;;;;;;30.03;43.18;96297.88;5075785;28;20056;-28
2022/07/27 10:11:26;;;;;;;9.75;2.80;;;;;;;29.98;43.29;96308.66;5076439;28;20343;-30
2022/07/27 10:13:53;;;;;;;7.85;3.38;;;;;;;30.02;43.94;96299.16;5076244;28;20025;-28
2022/07/27 10:16:23;;;;;;;7.15;2.80;;;;;;;29.88;43.43;96301.38;5076138;28;20536;-29
2022/07/27 10:19:02;;;;;;;12.13;2.90;;;;;;;29.88;43.59;96310.50;5076000;28;20025;-28
2022/07/27 10:21:28;;;;;;;7.28;2.85;;;;;;;30.17;43.24;96302.66;5075930;28;20017;-28
2022/07/27 10:24:02;;;;;;;6.43;2.50;;;;;;;30.30;42.55;96298.94;5075817;28;20031;-28
2022/07/27 10:26:34;;;;;;;7.93;2.58;;;;;;;30.33;42.64;96304.16;5075999;28;20032;-29
2022/07/27 10:29:15;;;;;;;5.72;2.90;;;;;;;30.14;43.34;96308.66;5075930;28;20028;-29
2022/07/27 10:31:54;;;;;;;8.77;2.85;;;;;;;29.84;43.79;96303.78;5075764;28;20020;-29
2022/07/27 10:34:40;;;;;;;8.68;3.20;;;;;;;30.21;43.31;96311.44;5075699;28;20020;-28
2022/07/27 10:37:11;;;;;;;6.65;2.50;;;;;;;30.26;42.54;96299.31;5075985;28;20032;-28
2022/07/27 10:39:48;;;;;;;6.15;2.70;;;;;;;30.29;42.55;96284.19;5075533;28;20067;-29
2022/07/27 10:42:23;;;;;;;6.55;2.65;;;;;;;30.18;42.89;96297.81;5075574;28;20028;-28
2022/07/27 10:45:07;;;;;;;6.10;2.47;;;;;;;30.12;43.14;96300.84;5075110;28;20031;-28
2022/07/27 10:47:54;;;;;;;5.43;2.50;;;;;;;30.10;43.06;96297.84;5075416;28;20028;-29
2022/07/27 10:50:28;;;;;;;5.28;2.40;;;;;;;30.07;43.19;96295.41;5075217;28;20060;-28
2022/07/27 10:52:57;;;;;;;4.53;2.72;;;;;;;29.96;43.40;96288.91;5075296;28;20502;-28
2022/07/27 10:55:28;;;;;;;8.20;2.50;;;;;;;30.05;42.89;96290.38;5075340;28;20016;-28
2022/07/27 10:58:14;;;;;;;8.52;3.10;;;;;;;30.22;42.18;96293.34;5075263;28;20078;-28
2022/07/27 11:00:49;;;;;;;7.65;2.53;;;;;;;30.13;41.92;96284.78;5074900;28;20461;-30
2022/07/27 11:03:21;;;;;;;5.75;2.60;;;;;;;30.22;42.59;96290.56;5075146;28;20137;-28
2022/07/27 11:06:07;;;;;;;12.38;2.47;;;;;;;30.20;41.33;96284.78;5075184;28;20047;-29
2022/07/27 11:08:36;;;;;;;7.65;2.40;;;;;;;30.14;42.11;96275.09;5074617;28;20035;-28
2022/07/27 11:11:02;;;;;;;8.95;2.70;;;;;;;29.89;42.15;96278.47;5074847;28;20035;-28
2022/07/27 11:13:29;;;;;;;5.40;2.17;;;;;;;29.82;42.51;96273.59;5074841;28;20029;-29
2022/07/27 11:16:06;;;;;;;8.13;2.50;;;;;;;30.22;41.82;96270.97;5074893;28;20048;-28
2022/07/27 11:18:43;;;;;;;6.07;2.53;;;;;;;30.30;41.60;96268.91;5074831;28;20020;-29
2022/07/27 11:21:18;;;;;;;5.03;2.35;;;;;;;30.31;41.67;96273.19;5074952;28;20134;-28
2022/07/27 11:23:45;;;;;;;4.80;2.25;;;;;;;30.30;41.47;96265.34;5074819;28;20094;-28
2022/07/27 11:26:11;;;;;;;4.35;2.08;;;;;;;30.14;41.38;96270.25;5074946;28;20367;-29
2022/07/27 11:28:37;;;;;;;6.57;2.92;;;;;;;30.25;41.58;96260.72;5074621;28;20020;-30
2022/07/27 11:31:04;;;;;;;3.95;2.45;;;;;;;30.22;41.08;96257.00;5074466;28;20029;-28
2022/07/27 11:33:30;;;;;;;5.88;2.72;;;;;;;30.16;41.71;96250.88;5074398;28;20032;-28
2022/07/27 11:36:08;;;;;;;6.13;2.58;;;;;;;30.33;40.93;96251.00;5074629;28;20474;-28